createdAt,value
2022-10-01T00:00:11.165Z,90.24
2022-10-01T00:01:11.243Z,90.14
2022-10-01T00:02:11.144Z,90.55
2022-10-01T00:03:11.221Z,90.24
2022-10-01T00:04:11.114Z,90.34
2022-10-01T00:05:11.104Z,90.14
2022-10-01T00:06:11.106Z,90.44
2022-10-01T00:07:11.172Z,90.75
2022-10-01T00:08:11.074Z,90.85
2022-10-01T00:09:11.052Z,90.75
2022-10-01T00:10:11.042Z,90.75
2022-10-01T00:11:11.044Z,90.44
2022-10-01T00:12:11.013Z,90.44
2022-10-01T00:13:11.005Z,90.34
2022-10-01T00:14:10.991Z,90.44
2022-10-01T00:15:13.539Z,90.75
2022-10-01T00:16:11.047Z,90.89
2022-10-01T00:17:10.952Z,91.00
2022-10-01T00:18:10.940Z,91.20
2022-10-01T00:19:10.932Z,91.41
2022-10-01T00:20:14.598Z,91.41
2022-10-01T00:21:10.915Z,91.31
2022-10-01T00:22:10.884Z,91.10
2022-10-01T00:23:10.881Z,91.31
2022-10-01T00:24:10.863Z,91.27
2022-10-01T00:25:10.850Z,91.47
2022-10-01T00:26:10.840Z,90.85
2022-10-01T00:27:10.825Z,90.55
2022-10-01T00:28:10.848Z,90.85
2022-10-01T00:29:10.803Z,90.34
2022-10-01T00:30:10.780Z,90.24
2022-10-01T00:31:10.943Z,90.09
2022-10-01T00:32:10.760Z,90.09
2022-10-01T00:33:10.750Z,90.09
2022-10-01T00:34:10.731Z,90.20
2022-10-01T00:35:10.720Z,89.89
2022-10-01T00:36:10.718Z,89.99
2022-10-01T00:37:10.701Z,90.20
2022-10-01T00:38:10.679Z,90.09
2022-10-01T00:39:10.672Z,90.30
2022-10-01T00:40:10.660Z,90.44
2022-10-01T00:41:10.660Z,90.55
2022-10-01T00:42:10.634Z,90.65
2022-10-01T00:43:10.618Z,90.44
2022-10-01T00:44:10.609Z,90.85
2022-10-01T00:45:10.598Z,90.65
2022-10-01T00:46:10.682Z,90.85
2022-10-01T00:47:10.643Z,90.75
2022-10-01T00:48:10.557Z,91.06
2022-10-01T00:49:10.547Z,91.06
2022-10-01T00:50:10.529Z,91.16
2022-10-01T00:51:10.532Z,91.16
2022-10-01T00:52:10.505Z,91.16
2022-10-01T00:53:10.497Z,91.16
2022-10-01T00:54:10.478Z,91.47
2022-10-01T00:55:10.467Z,91.27
2022-10-01T00:56:10.456Z,91.37
2022-10-01T00:57:10.438Z,91.67
2022-10-01T00:58:10.427Z,91.37
2022-10-01T00:59:10.417Z,91.57
2022-10-01T01:00:10.396Z,91.78
2022-10-01T01:01:10.428Z,91.47
2022-10-01T01:02:10.455Z,91.37
2022-10-01T01:03:10.366Z,91.88
2022-10-01T01:04:10.347Z,91.37
2022-10-01T01:05:10.336Z,91.06
2022-10-01T01:06:10.338Z,90.61
2022-10-01T01:07:10.315Z,90.71
2022-10-01T01:08:10.295Z,90.81
2022-10-01T01:09:10.289Z,90.50
2022-10-01T01:10:10.273Z,90.40
2022-10-01T01:11:10.265Z,90.50
2022-10-01T01:12:10.262Z,90.30
2022-10-01T01:13:10.234Z,90.40
2022-10-01T01:14:10.222Z,90.20
2022-10-01T01:15:10.214Z,90.30
2022-10-01T01:16:10.266Z,90.20
2022-10-01T01:17:10.197Z,90.81
2022-10-01T01:18:10.164Z,90.61
2022-10-01T01:19:10.174Z,90.20
2022-10-01T01:20:10.143Z,90.40
2022-10-01T01:21:10.133Z,90.16
2022-10-01T01:22:10.124Z,90.56
2022-10-01T01:23:10.115Z,90.36
2022-10-01T01:24:10.092Z,90.05
2022-10-01T01:25:10.083Z,90.16
2022-10-01T01:26:10.071Z,90.36
2022-10-01T01:27:10.072Z,90.26
2022-10-01T01:28:10.123Z,90.26
2022-10-01T01:29:10.033Z,90.56
2022-10-01T01:30:10.022Z,90.77
2022-10-01T01:31:10.035Z,90.46
2022-10-01T01:32:14.553Z,90.26
2022-10-01T01:33:09.985Z,90.26
2022-10-01T01:34:09.970Z,90.16
2022-10-01T01:35:09.952Z,90.05
2022-10-01T01:36:09.941Z,90.16
2022-10-01T01:37:09.940Z,90.16
2022-10-01T01:38:09.911Z,90.05
2022-10-01T01:39:09.902Z,90.26
2022-10-01T01:40:09.891Z,90.26
2022-10-01T01:41:09.871Z,90.05
2022-10-01T01:42:09.871Z,90.26
2022-10-01T01:43:09.850Z,90.46
2022-10-01T01:44:09.842Z,90.46
2022-10-01T01:45:09.826Z,90.16
2022-10-01T01:46:09.883Z,90.26
2022-10-01T01:47:09.809Z,90.26
2022-10-01T01:48:09.789Z,90.16
2022-10-01T01:49:09.770Z,89.84
2022-10-01T01:50:09.761Z,89.60
2022-10-01T01:51:09.749Z,89.60
2022-10-01T01:52:09.740Z,89.60
2022-10-01T01:53:09.719Z,89.60
2022-10-01T01:54:09.709Z,89.70
2022-10-01T01:55:09.700Z,89.60
2022-10-01T01:56:09.690Z,89.60
2022-10-01T01:57:09.679Z,89.70
2022-10-01T01:58:09.661Z,90.05
2022-10-01T01:59:09.648Z,89.84
2022-10-01T02:00:09.639Z,89.84
2022-10-01T02:01:09.669Z,90.16
2022-10-01T02:02:09.704Z,90.05
2022-10-01T02:03:09.601Z,90.05
2022-10-01T02:04:09.587Z,90.16
2022-10-01T02:05:09.568Z,90.67
2022-10-01T02:06:09.558Z,90.46
2022-10-01T02:07:09.557Z,90.46
2022-10-01T02:08:09.537Z,90.97
2022-10-01T02:09:09.517Z,90.67
2022-10-01T02:10:09.507Z,90.67
2022-10-01T02:11:09.487Z,90.97
2022-10-01T02:12:09.496Z,91.28
2022-10-01T02:13:09.467Z,91.38
2022-10-01T02:14:09.459Z,91.33
2022-10-01T02:15:09.444Z,91.63
2022-10-01T02:16:09.498Z,91.94
2022-10-01T02:17:09.426Z,92.04
2022-10-01T02:18:09.410Z,92.04
2022-10-01T02:19:09.386Z,92.14
2022-10-01T02:20:09.377Z,92.25
2022-10-01T02:21:09.367Z,92.91
2022-10-01T02:22:09.366Z,92.91
2022-10-01T02:23:09.336Z,93.21
2022-10-01T02:24:09.325Z,93.32
2022-10-01T02:25:09.315Z,93.52
2022-10-01T02:26:09.315Z,93.52
2022-10-01T02:27:09.295Z,93.63
2022-10-01T02:28:09.335Z,93.63
2022-10-01T02:29:09.263Z,93.73
2022-10-01T02:30:09.262Z,93.83
2022-10-01T02:31:09.310Z,93.73
2022-10-01T02:32:09.253Z,93.93
2022-10-01T02:33:09.215Z,93.63
2022-10-01T02:34:12.448Z,93.52
2022-10-01T02:35:09.504Z,92.86
2022-10-01T02:36:09.177Z,92.86
2022-10-01T02:37:09.173Z,92.25
2022-10-01T02:38:09.161Z,92.25
2022-10-01T02:39:09.142Z,91.80
2022-10-01T02:40:09.123Z,91.28
2022-10-01T02:41:09.113Z,91.18
2022-10-01T02:42:09.112Z,90.87
2022-10-01T02:43:09.082Z,90.42
2022-10-01T02:44:09.075Z,90.73
2022-10-01T02:45:09.052Z,90.42
2022-10-01T02:46:09.074Z,90.11
2022-10-01T02:47:09.042Z,90.22
2022-10-01T02:48:09.021Z,90.11
2022-10-01T02:49:09.002Z,90.32
2022-10-01T02:50:09.000Z,90.62
2022-10-01T02:51:08.982Z,90.62
2022-10-01T02:52:08.984Z,90.52
2022-10-01T02:53:08.959Z,90.62
2022-10-01T02:54:08.941Z,90.52
2022-10-01T02:55:08.933Z,90.73
2022-10-01T02:56:08.922Z,90.83
2022-10-01T02:57:08.910Z,91.03
2022-10-01T02:58:08.893Z,90.83
2022-10-01T02:59:08.880Z,91.14
2022-10-01T03:00:08.871Z,91.03
2022-10-01T03:01:08.868Z,91.18
2022-10-01T03:02:08.968Z,91.49
2022-10-01T03:03:08.835Z,91.38
2022-10-01T03:04:08.820Z,91.59
2022-10-01T03:05:08.799Z,90.97
2022-10-01T03:06:08.789Z,90.32
2022-10-01T03:07:08.787Z,90.01
2022-10-01T03:08:08.769Z,89.76
2022-10-01T03:09:08.777Z,89.45
2022-10-01T03:10:08.751Z,88.53
2022-10-01T03:11:08.763Z,87.88
2022-10-01T03:12:08.728Z,87.53
2022-10-01T03:13:08.698Z,87.02
2022-10-01T03:14:08.690Z,86.40
2022-10-01T03:15:08.670Z,85.75
2022-10-01T03:16:08.705Z,85.55
2022-10-01T03:17:08.659Z,84.83
2022-10-01T03:18:08.637Z,84.89
2022-10-01T03:19:08.618Z,84.79
2022-10-01T03:20:08.608Z,84.07
2022-10-01T03:21:08.589Z,84.99
2022-10-01T03:22:08.580Z,83.87
2022-10-01T03:23:08.576Z,83.87
2022-10-01T03:24:08.548Z,83.66
2022-10-01T03:25:08.528Z,83.22
2022-10-01T03:26:08.537Z,82.60
2022-10-01T03:27:08.517Z,82.05
2022-10-01T03:28:08.550Z,81.95
2022-10-01T03:29:08.488Z,81.74
2022-10-01T03:30:08.477Z,81.54
2022-10-01T03:31:08.518Z,81.34
2022-10-01T03:32:08.456Z,81.34
2022-10-01T03:33:08.444Z,81.34
2022-10-01T03:34:08.428Z,81.74
2022-10-01T03:35:08.409Z,81.24
2022-10-01T03:36:08.414Z,80.69
2022-10-01T03:37:08.376Z,81.10
2022-10-01T03:38:08.376Z,80.79
2022-10-01T03:39:08.358Z,80.89
2022-10-01T03:40:08.346Z,80.89
2022-10-01T03:41:08.326Z,80.69
2022-10-01T03:42:08.316Z,81.44
2022-10-01T03:43:08.314Z,81.34
2022-10-01T03:44:08.287Z,80.83
2022-10-01T03:45:08.276Z,81.03
2022-10-01T03:46:08.289Z,81.74
2022-10-01T03:47:08.245Z,81.44
2022-10-01T03:48:08.248Z,81.44
2022-10-01T03:49:08.223Z,81.44
2022-10-01T03:50:08.215Z,80.83
2022-10-01T03:51:08.195Z,81.13
2022-10-01T03:52:08.187Z,81.13
2022-10-01T03:53:08.175Z,80.93
2022-10-01T03:54:08.166Z,81.10
2022-10-01T03:55:08.144Z,81.30
2022-10-01T03:56:08.134Z,81.13
2022-10-01T03:57:08.126Z,80.79
2022-10-01T03:58:08.115Z,81.30
2022-10-01T03:59:08.084Z,81.24
2022-10-01T04:00:08.075Z,81.85
2022-10-01T04:01:08.067Z,81.44
2022-10-01T04:02:08.179Z,81.54
2022-10-01T04:03:08.133Z,82.15
2022-10-01T04:04:08.024Z,81.03
2022-10-01T04:05:08.011Z,81.65
2022-10-01T04:06:08.002Z,81.24
2022-10-01T04:07:07.983Z,81.34
2022-10-01T04:08:07.984Z,81.24
2022-10-01T04:09:07.953Z,81.24
2022-10-01T04:10:07.943Z,81.03
2022-10-01T04:11:07.932Z,81.20
2022-10-01T04:12:07.923Z,81.91
2022-10-01T04:13:07.913Z,81.44
2022-10-01T04:14:07.900Z,81.30
2022-10-01T04:15:07.880Z,80.79
2022-10-01T04:16:08.241Z,81.30
2022-10-01T04:17:07.851Z,81.10
2022-10-01T04:18:07.853Z,80.38
2022-10-01T04:19:07.823Z,80.07
2022-10-01T04:20:07.831Z,80.58
2022-10-01T04:21:07.799Z,80.34
2022-10-01T04:22:07.791Z,80.34
2022-10-01T04:23:07.780Z,80.24
2022-10-01T04:24:07.766Z,80.14
2022-10-01T04:25:07.749Z,80.24
2022-10-01T04:26:07.762Z,79.93
2022-10-01T04:27:07.751Z,80.14
2022-10-01T04:28:07.819Z,80.04
2022-10-01T04:29:07.690Z,80.24
2022-10-01T04:30:07.682Z,80.14
2022-10-01T04:31:07.690Z,79.83
2022-10-01T04:32:07.746Z,80.34
2022-10-01T04:33:07.647Z,80.34
2022-10-01T04:34:07.630Z,79.83
2022-10-01T04:35:07.641Z,80.04
2022-10-01T04:36:07.600Z,79.73
2022-10-01T04:37:07.598Z,80.04
2022-10-01T04:38:07.580Z,80.04
2022-10-01T04:39:07.559Z,80.55
2022-10-01T04:40:07.563Z,80.75
2022-10-01T04:41:07.541Z,80.44
2022-10-01T04:42:07.529Z,81.05
2022-10-01T04:43:07.509Z,80.44
2022-10-01T04:44:07.500Z,80.55
2022-10-01T04:45:07.479Z,80.04
2022-10-01T04:46:07.477Z,80.04
2022-10-01T04:47:07.521Z,79.49
2022-10-01T04:48:07.449Z,79.43
2022-10-01T04:49:07.438Z,79.90
2022-10-01T04:50:07.427Z,80.14
2022-10-01T04:51:07.408Z,79.93
2022-10-01T04:52:07.399Z,80.44
2022-10-01T04:53:07.377Z,79.49
2022-10-01T04:54:07.368Z,80.04
2022-10-01T04:55:07.348Z,79.80
2022-10-01T04:56:07.349Z,80.00
2022-10-01T04:57:07.337Z,79.39
2022-10-01T04:58:07.317Z,79.28
2022-10-01T04:59:07.298Z,79.80
2022-10-01T05:00:07.287Z,79.39
2022-10-01T05:01:07.380Z,79.28
2022-10-01T05:02:07.348Z,79.39
2022-10-01T05:03:07.249Z,79.18
2022-10-01T05:04:07.239Z,79.14
2022-10-01T05:05:07.224Z,79.04
2022-10-01T05:06:07.216Z,79.14
2022-10-01T05:07:07.208Z,79.35
2022-10-01T05:08:07.188Z,78.94
2022-10-01T05:09:07.167Z,79.14
2022-10-01T05:10:07.156Z,79.25
2022-10-01T05:11:07.138Z,79.55
2022-10-01T05:12:07.146Z,78.94
2022-10-01T05:13:07.118Z,78.53
2022-10-01T05:14:07.106Z,78.23
2022-10-01T05:15:07.118Z,78.53
2022-10-01T05:16:07.127Z,78.30
2022-10-01T05:17:07.082Z,77.78
2022-10-01T05:18:07.056Z,78.19
2022-10-01T05:19:07.036Z,78.09
2022-10-01T05:20:07.026Z,77.98
2022-10-01T05:21:07.014Z,77.78
2022-10-01T05:22:07.016Z,77.78
2022-10-01T05:23:06.985Z,78.19
2022-10-01T05:24:06.977Z,78.39
2022-10-01T05:25:06.957Z,78.39
2022-10-01T05:26:06.948Z,78.19
2022-10-01T05:27:06.947Z,78.50
2022-10-01T05:28:06.958Z,78.80
2022-10-01T05:29:06.904Z,79.32
2022-10-01T05:30:06.895Z,79.72
2022-10-01T05:31:06.927Z,79.93
2022-10-01T05:32:06.920Z,81.04
2022-10-01T05:33:06.860Z,80.37
2022-10-01T05:34:06.844Z,82.21
2022-10-01T05:35:06.833Z,81.59
2022-10-01T05:36:06.814Z,82.71
2022-10-01T05:37:06.814Z,82.82
2022-10-01T05:38:06.794Z,82.96
2022-10-01T05:39:06.773Z,83.16
2022-10-01T05:40:06.763Z,83.37
2022-10-01T05:41:06.754Z,83.57
2022-10-01T05:42:06.781Z,84.39
2022-10-01T05:43:06.724Z,83.67
2022-10-01T05:44:06.715Z,84.08
2022-10-01T05:45:06.703Z,84.39
2022-10-01T05:46:06.838Z,83.57
2022-10-01T05:47:06.685Z,83.57
2022-10-01T05:48:06.662Z,84.08
2022-10-01T05:49:06.643Z,84.39
2022-10-01T05:50:06.636Z,85.21
2022-10-01T05:51:06.680Z,85.30
2022-10-01T05:52:06.616Z,85.96
2022-10-01T05:53:06.594Z,85.96
2022-10-01T05:54:06.584Z,85.75
2022-10-01T05:55:06.572Z,85.86
2022-10-01T05:56:06.552Z,86.16
2022-10-01T05:57:06.552Z,87.18
2022-10-01T05:58:06.525Z,88.10
2022-10-01T05:59:06.513Z,87.94
2022-10-01T06:00:06.601Z,89.26
2022-10-01T06:01:06.492Z,88.85
2022-10-01T06:02:06.505Z,88.24
2022-10-01T06:03:06.601Z,89.67
2022-10-01T06:04:06.449Z,91.52
2022-10-01T06:05:06.442Z,90.94
2022-10-01T06:06:06.430Z,90.94
2022-10-01T06:07:06.421Z,91.96
2022-10-01T06:08:06.398Z,91.86
2022-10-01T06:09:06.381Z,93.40
2022-10-01T06:10:06.369Z,93.13
2022-10-01T06:11:06.361Z,93.33
2022-10-01T06:12:06.349Z,94.56
2022-10-01T06:13:06.333Z,93.95
2022-10-01T06:14:06.310Z,94.67
2022-10-01T06:15:06.310Z,93.95
2022-10-01T06:16:06.369Z,95.18
2022-10-01T06:17:06.312Z,94.46
2022-10-01T06:18:06.260Z,94.06
2022-10-01T06:19:06.259Z,95.28
2022-10-01T06:20:06.250Z,95.48
2022-10-01T06:21:06.240Z,95.12
2022-10-01T06:22:06.250Z,96.04
2022-10-01T06:23:06.199Z,96.96
2022-10-01T06:24:06.190Z,97.06
2022-10-01T06:25:06.169Z,97.88
2022-10-01T06:26:06.158Z,98.19
2022-10-01T06:27:06.159Z,98.65
2022-10-01T06:28:06.219Z,98.24
2022-10-01T06:29:06.118Z,98.74
2022-10-01T06:30:06.121Z,99.15
2022-10-01T06:31:06.098Z,99.66
2022-10-01T06:32:06.149Z,99.99
2022-10-01T06:33:06.069Z,99.99
2022-10-01T06:34:06.065Z,99.99
2022-10-01T06:35:06.058Z,99.99
2022-10-01T06:36:06.031Z,99.99
2022-10-01T06:37:06.028Z,99.99
2022-10-01T06:38:06.008Z,99.99
2022-10-01T06:39:05.987Z,99.99
2022-10-01T06:40:05.986Z,99.99
2022-10-01T06:41:05.967Z,99.99
2022-10-01T06:42:05.957Z,99.99
2022-10-01T06:43:05.938Z,99.99
2022-10-01T06:44:05.917Z,99.99
2022-10-01T06:45:05.915Z,99.99
2022-10-01T06:46:06.018Z,99.99
2022-10-01T06:47:05.922Z,99.99
2022-10-01T06:48:05.912Z,99.99
2022-10-01T06:49:05.866Z,99.99
2022-10-01T06:50:05.846Z,99.99
2022-10-01T06:51:05.865Z,99.99
2022-10-01T06:52:05.846Z,99.99
2022-10-01T06:53:05.844Z,99.99
2022-10-01T06:54:05.801Z,99.99
2022-10-01T06:55:05.788Z,99.99
2022-10-01T06:56:05.777Z,99.99
2022-10-01T06:57:05.776Z,99.99
2022-10-01T06:58:05.755Z,99.99
2022-10-01T06:59:05.735Z,99.99
2022-10-01T07:00:05.719Z,99.99
2022-10-01T07:01:05.816Z,99.99
2022-10-01T07:02:05.751Z,99.99
2022-10-01T07:03:05.684Z,99.99
2022-10-01T07:04:05.674Z,99.99
2022-10-01T07:05:05.734Z,99.99
2022-10-01T07:06:05.645Z,99.99
2022-10-01T07:07:05.664Z,99.99
2022-10-01T07:08:05.614Z,99.99
2022-10-01T07:09:05.614Z,99.99
2022-10-01T07:10:05.595Z,99.99
2022-10-01T07:11:05.586Z,99.99
2022-10-01T07:12:05.564Z,99.99
2022-10-01T07:13:05.563Z,99.99
2022-10-01T07:14:05.534Z,99.99
2022-10-01T07:15:05.539Z,99.99
2022-10-01T07:16:05.553Z,99.99
2022-10-01T07:17:05.513Z,99.99
2022-10-01T07:18:05.494Z,99.99
2022-10-01T07:19:05.474Z,99.99
2022-10-01T07:20:05.462Z,99.99
2022-10-01T07:21:05.452Z,99.99
2022-10-01T07:22:05.432Z,99.99
2022-10-01T07:23:05.432Z,99.99
2022-10-01T07:24:05.434Z,99.99
2022-10-01T07:25:05.399Z,99.99
2022-10-01T07:26:05.405Z,99.99
2022-10-01T07:27:07.540Z,99.99
2022-10-01T07:28:05.475Z,99.99
2022-10-01T07:29:05.369Z,99.99
2022-10-01T07:30:05.333Z,99.99
2022-10-01T07:31:05.323Z,99.99
2022-10-01T07:32:05.353Z,99.99
2022-10-01T07:33:05.366Z,99.99
2022-10-01T07:34:05.290Z,99.99
2022-10-01T07:35:05.372Z,99.99
2022-10-01T07:36:05.280Z,99.99
2022-10-01T07:37:05.249Z,99.99
2022-10-01T07:38:05.251Z,99.99
2022-10-01T07:39:05.311Z,99.99
2022-10-01T07:40:07.471Z,99.99
2022-10-01T07:41:05.242Z,99.99
2022-10-01T07:42:05.182Z,99.99
2022-10-01T07:43:05.195Z,99.99
2022-10-01T07:44:05.150Z,99.99
2022-10-01T07:45:05.150Z,99.99
2022-10-01T07:46:05.279Z,99.99
2022-10-01T07:47:05.370Z,99.99
2022-10-01T07:48:05.130Z,99.99
2022-10-01T07:49:05.129Z,99.99
2022-10-01T07:50:05.079Z,99.99
2022-10-01T07:51:05.070Z,99.99
2022-10-01T07:52:06.822Z,99.99
2022-10-01T07:53:05.090Z,99.99
2022-10-01T07:54:05.009Z,99.99
2022-10-01T07:55:05.293Z,99.99
2022-10-01T07:56:05.009Z,99.99
2022-10-01T07:57:05.007Z,99.99
2022-10-01T07:58:05.004Z,99.99
2022-10-01T07:59:04.968Z,99.99
2022-10-01T08:00:04.942Z,99.99
2022-10-01T08:01:04.988Z,99.99
2022-10-01T08:02:04.933Z,99.99
2022-10-01T08:03:04.948Z,99.99
2022-10-01T08:04:04.888Z,99.99
2022-10-01T08:05:04.930Z,99.99
2022-10-01T08:06:04.916Z,99.99
2022-10-01T08:07:04.861Z,99.99
2022-10-01T08:08:04.884Z,99.99
2022-10-01T08:09:04.842Z,99.99
2022-10-01T08:10:04.819Z,99.99
2022-10-01T08:11:04.825Z,99.99
2022-10-01T08:12:04.880Z,99.99
2022-10-01T08:13:04.812Z,99.99
2022-10-01T08:14:04.783Z,99.99
2022-10-01T08:15:04.757Z,99.99
2022-10-01T08:16:04.759Z,99.99
2022-10-01T08:17:04.756Z,99.99
2022-10-01T08:18:04.759Z,99.99
2022-10-01T08:19:04.730Z,99.99
2022-10-01T08:20:04.685Z,99.99
2022-10-01T08:21:04.685Z,99.99
2022-10-01T08:22:04.695Z,99.99
2022-10-01T08:23:04.665Z,99.99
2022-10-01T08:24:04.645Z,99.99
2022-10-01T08:25:04.716Z,99.99
2022-10-01T08:26:04.617Z,99.99
2022-10-01T08:27:04.604Z,99.99
2022-10-01T08:28:04.619Z,99.99
2022-10-01T08:29:04.565Z,99.99
2022-10-01T08:30:04.576Z,99.99
2022-10-01T08:31:04.543Z,99.99
2022-10-01T08:32:04.599Z,99.99
2022-10-01T08:33:04.518Z,99.99
2022-10-01T08:34:04.519Z,99.99
2022-10-01T08:35:04.505Z,99.99
2022-10-01T08:36:04.455Z,99.99
2022-10-01T08:37:04.474Z,99.99
2022-10-01T08:38:04.470Z,99.99
2022-10-01T08:39:04.425Z,99.99
2022-10-01T08:40:04.405Z,99.99
2022-10-01T08:41:04.435Z,99.99
2022-10-01T08:42:04.395Z,99.99
2022-10-01T08:43:04.392Z,99.99
2022-10-01T08:44:04.395Z,99.99
2022-10-01T08:45:04.359Z,99.99
2022-10-01T08:46:04.493Z,99.99
2022-10-01T08:47:04.334Z,99.99
2022-10-01T08:48:04.312Z,99.99
2022-10-01T08:49:04.295Z,99.99
2022-10-01T08:50:04.298Z,99.99
2022-10-01T08:51:04.282Z,99.99
2022-10-01T08:52:04.271Z,99.99
2022-10-01T08:53:04.272Z,99.99
2022-10-01T08:54:04.235Z,99.99
2022-10-01T08:55:04.225Z,99.99
2022-10-01T08:56:04.220Z,99.99
2022-10-01T08:57:04.192Z,99.99
2022-10-01T08:58:04.218Z,99.99
2022-10-01T08:59:04.161Z,99.99
2022-10-01T09:00:04.168Z,99.99
2022-10-01T09:01:04.206Z,99.99
2022-10-01T09:02:04.111Z,99.99
2022-10-01T09:03:04.134Z,99.99
2022-10-01T09:04:04.154Z,99.99
2022-10-01T09:05:04.129Z,99.99
2022-10-01T09:06:04.106Z,99.99
2022-10-01T09:07:04.067Z,99.99
2022-10-01T09:08:04.063Z,99.99
2022-10-01T09:09:04.051Z,99.99
2022-10-01T09:10:04.065Z,99.99
2022-10-01T09:11:04.051Z,99.99
2022-10-01T09:12:03.972Z,99.99
2022-10-01T09:13:12.649Z,99.99
2022-10-01T09:14:03.958Z,99.99
2022-10-01T09:15:11.492Z,99.99
2022-10-01T09:16:03.970Z,99.99
2022-10-01T09:17:03.921Z,99.99
2022-10-01T09:18:03.911Z,99.99
2022-10-01T09:19:03.892Z,99.99
2022-10-01T09:20:03.900Z,99.99
2022-10-01T09:21:03.886Z,99.99
2022-10-01T09:22:03.880Z,99.99
2022-10-01T09:23:03.861Z,99.99
2022-10-01T09:24:03.868Z,99.99
2022-10-01T09:25:03.841Z,99.99
2022-10-01T09:26:03.810Z,99.99
2022-10-01T09:27:03.808Z,99.99
2022-10-01T09:28:03.857Z,99.99
2022-10-01T09:29:03.801Z,99.99
2022-10-01T09:30:03.781Z,99.99
2022-10-01T09:31:03.770Z,99.99
2022-10-01T09:32:03.795Z,99.99
2022-10-01T09:33:03.791Z,99.99
2022-10-01T09:34:03.759Z,99.99
2022-10-01T09:35:04.790Z,99.99
2022-10-01T09:36:03.695Z,99.99
2022-10-01T09:37:03.719Z,99.99
2022-10-01T09:38:03.683Z,99.99
2022-10-01T09:39:03.674Z,99.99
2022-10-01T09:40:03.630Z,99.99
2022-10-01T09:41:03.610Z,99.99
2022-10-01T09:42:03.629Z,99.99
2022-10-01T09:43:03.641Z,99.99
2022-10-01T09:44:03.558Z,99.99
2022-10-01T09:45:03.562Z,99.99
2022-10-01T09:46:03.593Z,99.99
2022-10-01T09:47:03.531Z,99.99
2022-10-01T09:48:03.524Z,99.99
2022-10-01T09:49:03.499Z,99.99
2022-10-01T09:50:03.489Z,98.77
2022-10-01T09:51:03.495Z,99.59
2022-10-01T09:52:03.488Z,99.49
2022-10-01T09:53:03.466Z,99.99
2022-10-01T09:54:03.437Z,99.79
2022-10-01T09:55:03.450Z,99.69
2022-10-01T09:56:03.466Z,99.49
2022-10-01T09:57:03.488Z,99.75
2022-10-01T09:58:03.400Z,99.54
2022-10-01T09:59:03.428Z,99.54
2022-10-01T10:00:03.397Z,99.04
2022-10-01T10:01:03.386Z,98.79
2022-10-01T10:02:03.465Z,98.48
2022-10-01T10:03:03.429Z,98.07
2022-10-01T10:04:03.321Z,97.87
2022-10-01T10:05:03.324Z,98.07
2022-10-01T10:06:03.303Z,97.92
2022-10-01T10:07:03.331Z,97.82
2022-10-01T10:08:03.279Z,97.41
2022-10-01T10:09:03.324Z,97.31
2022-10-01T10:10:03.246Z,97.31
2022-10-01T10:11:03.213Z,97.41
2022-10-01T10:12:03.206Z,97.52
2022-10-01T10:13:03.206Z,96.70
2022-10-01T10:14:03.177Z,97.36
2022-10-01T10:15:03.159Z,97.72
2022-10-01T10:16:03.184Z,97.62
2022-10-01T10:17:03.139Z,98.23
2022-10-01T10:18:03.167Z,96.91
2022-10-01T10:19:03.129Z,97.52
2022-10-01T10:20:03.106Z,97.11
2022-10-01T10:21:03.077Z,97.67
2022-10-01T10:22:03.075Z,97.37
2022-10-01T10:23:03.065Z,97.73
2022-10-01T10:24:03.057Z,96.97
2022-10-01T10:25:03.029Z,95.85
2022-10-01T10:26:03.034Z,94.93
2022-10-01T10:27:03.016Z,95.34
2022-10-01T10:28:03.060Z,94.84
2022-10-01T10:29:02.989Z,95.04
2022-10-01T10:30:02.973Z,94.63
2022-10-01T10:31:02.971Z,95.30
2022-10-01T10:32:02.935Z,95.09
2022-10-01T10:33:02.934Z,94.48
2022-10-01T10:34:02.942Z,94.69
2022-10-01T10:35:03.600Z,94.69
2022-10-01T10:36:02.893Z,94.34
2022-10-01T10:37:02.875Z,93.93
2022-10-01T10:38:02.883Z,94.95
2022-10-01T10:39:02.834Z,93.93
2022-10-01T10:40:02.838Z,93.07
2022-10-01T10:41:02.829Z,93.18
2022-10-01T10:42:02.801Z,92.77
2022-10-01T10:43:02.804Z,91.96
2022-10-01T10:44:02.786Z,92.91
2022-10-01T10:45:02.764Z,92.51
2022-10-01T10:46:02.774Z,92.41
2022-10-01T10:47:02.734Z,93.43
2022-10-01T10:48:02.752Z,93.32
2022-10-01T10:49:02.734Z,92.30
2022-10-01T10:50:02.698Z,93.22
2022-10-01T10:51:02.710Z,93.22
2022-10-01T10:52:02.674Z,92.76
2022-10-01T10:53:02.665Z,93.06
2022-10-01T10:54:02.646Z,94.18
2022-10-01T10:55:02.633Z,94.59
2022-10-01T10:56:02.624Z,93.16
2022-10-01T10:57:02.720Z,93.98
2022-10-01T10:58:05.162Z,93.06
2022-10-01T10:59:02.573Z,93.57
2022-10-01T11:00:02.575Z,93.06
2022-10-01T11:01:02.612Z,93.02
2022-10-01T11:02:02.625Z,92.91
2022-10-01T11:03:02.550Z,92.77
2022-10-01T11:04:02.533Z,91.96
2022-10-01T11:05:02.509Z,92.26
2022-10-01T11:06:02.485Z,92.02
2022-10-01T11:07:02.462Z,91.20
2022-10-01T11:08:02.475Z,92.18
2022-10-01T11:09:02.462Z,92.33
2022-10-01T11:10:02.444Z,91.38
2022-10-01T11:11:02.423Z,89.25
2022-10-01T11:12:02.409Z,89.59
2022-10-01T11:13:02.413Z,89.65
2022-10-01T11:14:02.383Z,89.35
2022-10-01T11:15:02.365Z,89.19
2022-10-01T11:16:02.388Z,89.80
2022-10-01T11:17:02.343Z,89.13
2022-10-01T11:18:02.342Z,90.09
2022-10-01T11:19:02.330Z,90.70
2022-10-01T11:20:02.323Z,90.70
2022-10-01T11:21:02.282Z,90.55
2022-10-01T11:22:02.283Z,90.86
2022-10-01T11:23:02.282Z,90.35
2022-10-01T11:24:02.251Z,90.59
2022-10-01T11:25:02.243Z,91.20
2022-10-01T11:26:02.232Z,91.06
2022-10-01T11:27:02.212Z,90.14
2022-10-01T11:28:02.269Z,90.55
2022-10-01T11:29:02.181Z,90.51
2022-10-01T11:30:02.176Z,89.76
2022-10-01T11:31:02.198Z,89.21
2022-10-01T11:32:02.144Z,88.35
2022-10-01T11:33:02.141Z,87.38
2022-10-01T11:34:02.123Z,88.09
2022-10-01T11:35:02.103Z,88.40
2022-10-01T11:36:03.020Z,87.83
2022-10-01T11:37:02.083Z,88.75
2022-10-01T11:38:02.103Z,88.38
2022-10-01T11:39:02.063Z,89.39
2022-10-01T11:40:02.042Z,89.90
2022-10-01T11:41:02.023Z,90.11
2022-10-01T11:42:02.012Z,89.59
2022-10-01T11:43:02.091Z,90.20
2022-10-01T11:44:01.986Z,89.29
2022-10-01T11:45:01.972Z,90.00
2022-10-01T11:46:01.982Z,91.44
2022-10-01T11:47:01.943Z,88.76
2022-10-01T11:48:01.954Z,87.45
2022-10-01T11:49:01.921Z,87.69
2022-10-01T11:50:01.905Z,88.49
2022-10-01T11:51:01.892Z,88.09
2022-10-01T11:52:01.884Z,88.70
2022-10-01T11:53:01.872Z,88.80
2022-10-01T11:54:01.851Z,89.43
2022-10-01T11:55:01.832Z,87.60
2022-10-01T11:56:01.871Z,87.16
2022-10-01T11:57:01.825Z,86.85
2022-10-01T11:58:01.812Z,85.39
2022-10-01T11:59:01.783Z,86.71
2022-10-01T12:00:01.771Z,85.48
2022-10-01T12:01:01.769Z,86.90
2022-10-01T12:02:01.805Z,85.48
2022-10-01T12:03:01.742Z,86.65
2022-10-01T12:04:01.722Z,87.26
2022-10-01T12:05:01.713Z,87.36
2022-10-01T12:06:01.701Z,87.16
2022-10-01T12:07:01.674Z,86.39
2022-10-01T12:08:01.725Z,87.30
2022-10-01T12:09:01.671Z,87.60
2022-10-01T12:10:01.643Z,86.59
2022-10-01T12:11:01.632Z,86.39
2022-10-01T12:12:01.637Z,88.07
2022-10-01T12:13:01.623Z,86.45
2022-10-01T12:14:01.636Z,86.45
2022-10-01T12:15:06.231Z,85.24
2022-10-01T12:16:02.593Z,87.62
2022-10-01T12:17:01.628Z,86.10
2022-10-01T12:18:01.554Z,85.64
2022-10-01T12:19:01.525Z,84.99
2022-10-01T12:20:01.534Z,85.54
2022-10-01T12:21:01.495Z,86.25
2022-10-01T12:22:01.508Z,86.65
2022-10-01T12:23:01.487Z,85.54
2022-10-01T12:24:01.470Z,85.24
2022-10-01T12:25:01.480Z,86.15
2022-10-01T12:26:01.437Z,86.21
2022-10-01T12:27:01.436Z,86.57
2022-10-01T12:28:01.490Z,87.19
2022-10-01T12:29:01.393Z,84.03
2022-10-01T12:30:01.391Z,83.18
2022-10-01T12:31:01.380Z,81.96
2022-10-01T12:32:01.362Z,82.07
2022-10-01T12:33:01.353Z,81.80
2022-10-01T12:34:01.342Z,83.01
2022-10-01T12:35:01.323Z,82.51
2022-10-01T12:36:01.304Z,80.96
2022-10-01T12:37:01.290Z,82.67
2022-10-01T12:38:01.291Z,81.05
2022-10-01T12:39:01.271Z,81.74
2022-10-01T12:40:01.263Z,82.14
2022-10-01T12:41:01.233Z,82.75
2022-10-01T12:42:01.240Z,82.89
2022-10-01T12:43:04.277Z,81.88
2022-10-01T12:44:01.201Z,83.60
2022-10-01T12:45:01.194Z,82.85
2022-10-01T12:46:01.233Z,82.35
2022-10-01T12:47:01.162Z,82.31
2022-10-01T12:48:01.161Z,81.60
2022-10-01T12:49:01.131Z,83.38
2022-10-01T12:50:01.122Z,80.92
2022-10-01T12:51:01.111Z,80.92
2022-10-01T12:52:01.102Z,80.98